Station: Delamere  

  Atmospheric Gas Attenuation - ITU Rec 676-11   ----------------- dB/100km -----------------
Date Time Temp RH % AH g/m3 Dew Point Wind Direction Speed kph Gust kph Barometer mB Rainfall Since 9am 24GHz 47GHz 76GHz 122GHz 134GHz 241GHz
04/05 13:00 33.6 40 14.7 18.5 13 20 1011.1 0 31.2 29.2 51.9 137.1 144.8 503.2
04/05 12:50 34.4 36 13.8 17.6 15 17 1011.3 0 29.3 27.7 48.1 127.0 132.7 460.9
04/05 12:40 33.9 40 14.94 18.4 15 19 1011.6 0 31.7 29.5 52.6 139.0 147.3 511.7
04/05 12:30 33.2 40 14.4 17.8 11 19 1011.8 0 30.6 28.9 51.1 134.9 142.0 493.2
04/05 12:20 33 40 14.24 17.6 15 19 1012 0 30.3 28.8 50.6 133.6 140.4 487.7
04/05 12:10 32.4 41 14.14 17.8 13 13 1012.2 0 30.1 28.8 50.6 133.7 140.3 487.2
04/05 12:00 32 43 14.52 18.2 11 17 1012.4 0 30.9 29.5 52.3 138.2 145.7 506.1
04/05 11:50 32 42 14.18 17.8 13 15 1012.5 0 30.2 29.0 51.1 134.8 141.5 491.5
04/05 11:40 33.3 42 15.2 19 11 17 1012.6 0 32.3 30.2 54.1 142.8 151.7 527.2
04/05 11:30 32.8 43 15.15 18.6 11 17 1012.7 0 32.2 30.2 54.2 143.2 152.1 528.4
04/05 11:20 32.5 43 14.91 18.3 9 13 1012.9 0 31.7 30.0 53.5 141.3 149.7 520.0
04/05 11:10 32.4 44 15.18 18.6 7 11 1012.9 0 32.3 30.4 54.6 144.2 153.2 532.5
04/05 11:00 32.1 45 15.28 18.7 9 20 1012.9 0 32.5 30.7 55.2 145.8 155.1 538.9
04/05 10:50 31.7 47 15.62 19 9 11 1013 0 33.2 31.4 56.8 150.1 160.2 556.8
04/05 10:40 31.5 49 16.11 19.8 7 9 1013.1 0 34.3 32.2 58.9 155.7 167.0 580.4
04/05 10:30 31.5 49 16.11 19.8 11 17 1013.1 0 34.3 32.2 58.9 155.7 167.0 580.4
04/05 10:20 31.1 52 16.74 20.1 13 15 1013.2 0 35.6 33.4 61.8 163.2 176.2 612.5
04/05 10:10 31.4 54 17.66 21 11 13 1013.2 0 37.5 34.8 65.3 172.7 187.9 653.3
04/05 10:00 30.7 57 17.95 21.2 11 13 1013 0 38.2 35.6 67.1 177.5 193.6 673.1
04/05 09:50 30.1 59 17.99 21.2 9 11 1012.9 0 38.3 35.9 67.8 179.3 195.7 680.2
04/05 09:40 29.8 61 18.3 21.5 9 13 1012.9 0 39.0 36.6 69.4 183.6 200.8 698.1
04/05 09:30 28.9 64 18.29 21.4 9 13 1012.8 0 39.1 36.9 70.2 185.6 203.1 705.7
04/05 09:20 28.5 66 18.45 21.5 9 9 1012.8 0 39.4 37.4 71.2 188.4 206.4 717.5
04/05 09:10 27.7 71 18.99 22 6 7 1012.8 0 40.7 38.7 74.4 196.9 216.6 752.7
04/05 09:00 27 73 18.79 21.7 7 11 1012.8 0 40.3 38.7 74.2 196.3 215.6 749.2
04/05 08:50 26.5 75 18.77 21.7 7 9 1012.8 0 40.3 38.9 74.6 197.3 216.8 753.1
04/05 08:40 26.2 76 18.71 21.6 9 9 1012.7 0 40.2 38.9 74.6 197.3 216.7 752.9
04/05 08:30 25.7 77 18.43 21.4 9 11 1012.5 0 39.7 38.6 73.8 195.2 213.9 743.0
04/05 08:20 24.8 79 17.98 20.9 7 9 1012.4 0 38.8 38.2 72.6 191.9 209.7 728.1
04/05 08:10 24 80 17.4 20.3 13 15 1012.3 0 37.7 37.5 70.6 186.8 203.1 705.2
04/05 08:00 23.4 81 17.03 20 9 13 1012.2 0 36.9 37.0 69.5 183.7 199.1 691.3
04/05 07:50 23.3 83 17.35 20.2 7 9 1012.1 0 37.6 37.7 71.0 187.8 204.2 709.0
04/05 07:40 22.8 84 17.07 20 6 6 1012.1 0 37.1 37.4 70.2 185.6 201.3 698.9
04/05 07:30 22.2 86 16.88 19.7 7 11 1012 0 36.7 37.3 69.9 184.7 200.0 694.3
04/05 07:20 21.7 88 16.79 19.6 9 11 1011.9 0 36.6 37.3 69.9 184.8 200.0 694.1
04/05 07:10 21.3 90 16.77 19.6 7 9 1011.8 0 36.6 37.5 70.2 185.5 200.8 696.6
04/05 07:00 20.9 91 16.57 19.4 7 11 1011.8 0 36.2 37.3 69.6 184.0 198.8 689.6
04/05 06:50 20.9 91 16.57 19.4 7 7 1011.7 0 36.2 37.3 69.6 184.0 198.7 689.6
04/05 06:40 20.9 91 16.57 19.4 9 9 1011.6 0 36.2 37.3 69.6 184.0 198.7 689.5
04/05 06:30 21 91 16.67 19.5 9 13 1011.4 0 36.4 37.4 70.0 184.9 200.0 693.9
04/05 06:20 20.9 91 16.57 19.4 9 11 1011.1 0 36.2 37.2 69.6 183.9 198.7 689.3
04/05 06:10 20.9 91 16.57 19.4 7 9 1011 0 36.2 37.2 69.6 183.9 198.6 689.2
04/05 06:00 20.9 91 16.57 19.4 7 11 1010.9 0 36.2 37.2 69.6 183.9 198.6 689.2
04/05 05:50 20.7 92 16.56 19.4 7 9 1010.9 0 36.2 37.3 69.7 184.2 199.0 690.5
04/05 05:40 20.8 91 16.48 19.3 7 7 1010.8 0 36.0 37.1 69.2 183.0 197.5 685.2
04/05 05:30 20.9 92 16.75 19.6 6 7 1010.7 0 36.6 37.6 70.4 186.1 201.4 698.7
04/05 05:20 20.9 92 16.75 19.6 6 6 1010.7 0 36.6 37.6 70.4 186.1 201.4 698.7
04/05 05:10 20.8 92 16.66 19.5 0 0 1010.8 0 36.4 37.4 70.1 185.2 200.3 694.9
04/05 05:00 20.9 91 16.57 19.4 0 0 1010.8 0 36.2 37.2 69.5 183.8 198.6 689.1
04/05 04:50 20.9 91 16.57 19.4 0 0 1010.8 0 36.2 37.2 69.5 183.8 198.6 689.1
04/05 04:40 21.2 90 16.68 19.5 0 0 1010.8 0 36.4 37.3 69.8 184.5 199.5 692.3
04/05 04:30 21.3 90 16.77 19.6 0 0 1010.7 0 36.6 37.4 70.1 185.3 200.6 696.1
04/05 04:20 21.5 89 16.78 19.6 0 0 1010.6 0 36.6 37.3 70.0 185.0 200.2 694.7
04/05 04:10 21.7 87 16.59 19.4 0 2 1010.7 0 36.2 36.9 68.9 182.1 196.8 682.9
04/05 04:00 21.8 87 16.69 19.5 7 9 1010.6 0 36.4 37.0 69.3 183.1 198.0 687.2
04/05 03:50 21.6 88 16.69 19.5 7 7 1010.8 0 36.4 37.1 69.5 183.6 198.6 689.1
04/05 03:40 21.8 87 16.69 19.5 6 7 1010.8 0 36.4 37.1 69.3 183.2 198.1 687.3
04/05 03:30 21.7 88 16.79 19.6 0 0 1011.1 0 36.6 37.3 69.9 184.7 199.9 693.7
04/05 03:20 21.7 88 16.79 19.6 0 0 1011 0 36.6 37.3 69.9 184.7 199.9 693.6
04/05 03:10 21.7 88 16.79 19.6 0 0 1011 0 36.6 37.3 69.9 184.7 199.9 693.6
04/05 03:00 21.7 88 16.79 19.6 0 0 1011.1 0 36.6 37.3 69.9 184.7 199.9 693.7
04/05 02:50 21.8 88 16.88 19.7 0 0 1011.1 0 36.8 37.4 70.2 185.6 201.0 697.6
04/05 02:40 22 87 16.88 19.7 0 0 1011.1 0 36.7 37.3 70.0 185.1 200.5 695.7
04/05 02:30 22 87 16.88 19.7 6 7 1011.1 0 36.7 37.3 70.0 185.1 200.5 695.7
04/05 02:20 22 88 17.08 19.9 7 7 1011.1 0 37.2 37.7 70.9 187.6 203.5 706.3
04/05 02:10 21.9 88 16.98 19.8 6 6 1011.2 0 37.0 37.6 70.6 186.6 202.3 702.0
04/05 02:00 21.9 88 16.98 19.8 7 11 1011.3 0 37.0 37.6 70.6 186.6 202.3 702.0
04/05 01:50 21.8 88 16.88 19.7 9 11 1011.1 0 36.8 37.4 70.2 185.6 201.0 697.6
04/05 01:40 22.1 87 16.98 19.8 6 7 1011.2 0 37.0 37.5 70.4 186.1 201.7 700.1
04/05 01:30 22.5 84 16.78 19.7 2 9 1011.3 0 36.5 36.9 69.1 182.7 197.6 686.0
04/05 01:20 23 83 17.06 20 0 0 1011.3 0 37.0 37.2 69.9 184.9 200.5 696.1
04/05 01:10 23.2 82 17.05 20 0 0 1011.6 0 37.0 37.1 69.7 184.3 199.9 693.9
04/05 01:00 23.6 80 17.01 19.9 0 6 1011.6 0 36.9 36.9 69.2 182.9 198.2 688.2
04/05 00:50 23.4 80 16.82 19.8 4 6 1011.6 0 36.5 36.6 68.5 181.0 195.9 680.1
04/05 00:40 23.6 80 17.01 19.9 7 7 1011.6 0 36.9 36.9 69.2 182.9 198.2 688.2
04/05 00:30 23.5 81 17.13 20 7 9 1011.6 0 37.1 37.2 69.8 184.6 200.3 695.4
04/05 00:20 23.4 81 17.03 20 7 9 1011.7 0 36.9 37.0 69.5 183.6 199.1 691.1
04/05 00:10 23.2 83 17.25 20.2 6 7 1011.7 0 37.4 37.5 70.7 186.8 202.9 704.5
04/05 00:00 23.1 83 17.16 20.1 7 9 1011.7 0 37.2 37.4 70.3 185.9 201.8 700.7
03/05 23:50 23.3 83 17.35 20.2 0 0 1011.8 0 37.6 37.7 71.0 187.8 204.2 708.9
03/05 23:40 23.4 82 17.24 20.1 0 0 1011.9 0 37.4 37.4 70.4 186.2 202.3 702.2
03/05 23:30 23.5 81 17.13 20 0 0 1011.9 0 37.1 37.2 69.8 184.6 200.3 695.5
03/05 23:20 23.6 81 17.23 20.1 0 0 1011.9 0 37.3 37.3 70.2 185.6 201.6 699.8
03/05 23:10 23.8 80 17.21 20.1 0 0 1011.9 0 37.3 37.2 69.9 184.9 200.7 696.9
03/05 23:00 24 79 17.19 20.1 4 6 1011.9 0 37.2 37.1 69.6 184.1 199.9 694.1
03/05 22:50 24 79 17.19 20.1 6 6 1011.9 0 37.2 37.1 69.6 184.1 199.9 694.1
03/05 22:40 24.1 78 17.07 20 6 6 1012 0 37.0 36.8 69.0 182.5 197.9 687.0
03/05 22:30 24 78 16.97 19.9 7 7 1012 0 36.7 36.7 68.7 181.5 196.6 682.7
03/05 22:20 24.1 78 17.07 20 7 9 1012.1 0 37.0 36.8 69.0 182.5 197.9 687.0
03/05 22:10 24.4 77 17.14 20.1 0 0 1012.2 0 37.1 36.8 69.1 182.6 198.1 688.0
03/05 22:00 24.6 76 17.1 20.1 0 0 1012.3 0 37.0 36.7 68.7 181.7 197.0 684.2
03/05 21:50 24.5 76 17.01 20 0 0 1012.4 0 36.8 36.5 68.4 180.8 196.0 680.5
03/05 21:40 24.7 75 16.98 20 0 0 1012.3 0 36.7 36.4 68.1 180.0 195.0 677.1
03/05 21:30 25 76 17.49 20.5 0 0 1012.3 0 37.8 37.2 70.1 185.4 201.8 700.7
03/05 21:20 25.3 74 17.32 20.3 0 0 1012.2 0 37.4 36.7 69.1 182.6 198.4 689.1
03/05 21:10 25.4 71 16.71 19.8 0 0 1012.2 0 36.1 35.6 66.3 175.2 189.3 657.3
03/05 21:00 25.5 70 16.57 19.6 0 0 1012.1 0 35.8 35.3 65.6 173.3 187.0 649.3
03/05 20:50 25.7 69 16.52 19.6 0 0 1012 0 35.6 35.1 65.2 172.2 185.8 645.1
03/05 20:40 26 68 16.56 19.6 0 0 1011.9 0 35.7 35.1 65.1 172.0 185.6 644.5
03/05 20:30 26.2 67 16.49 19.6 2 6 1011.7 0 35.5 34.9 64.6 170.7 184.1 639.3

Last Refresh: 04-May-2026 13:06:46

Bureau of Meteorology